createdAt,value
2024-04-16T00:01:29.782Z,7.38
2024-04-16T00:03:56.285Z,7.35
2024-04-16T00:06:22.769Z,7.37
2024-04-16T00:08:51.507Z,7.40
2024-04-16T00:11:18.228Z,7.44
2024-04-16T00:13:44.733Z,7.51
2024-04-16T00:16:11.403Z,7.51
2024-04-16T00:20:42.629Z,7.44
2024-04-16T00:23:09.088Z,7.45
2024-04-16T00:25:35.606Z,7.41
2024-04-16T00:28:02.154Z,7.33
2024-04-16T00:30:28.703Z,7.31
2024-04-16T00:32:55.280Z,7.25
2024-04-16T00:35:21.969Z,7.22
2024-04-16T00:37:48.444Z,7.19
2024-04-16T00:40:15.067Z,7.22
2024-04-16T00:42:41.629Z,7.20
2024-04-16T00:45:10.600Z,7.19
2024-04-16T00:47:37.728Z,7.26
2024-04-16T00:50:05.840Z,7.24
2024-04-16T00:52:32.529Z,7.26
2024-04-16T00:54:59.280Z,7.26
2024-04-16T00:57:25.821Z,7.27
2024-04-16T00:59:52.670Z,7.28
2024-04-16T01:02:19.117Z,7.29
2024-04-16T01:04:45.695Z,7.23
2024-04-16T01:07:12.439Z,7.19
2024-04-16T01:09:38.967Z,7.12
2024-04-16T01:12:05.950Z,7.15
2024-04-16T01:14:32.390Z,7.17
2024-04-16T01:16:58.929Z,7.14
2024-04-16T01:19:25.447Z,7.17
2024-04-16T01:21:52.087Z,7.16
2024-04-16T01:24:18.611Z,7.14
2024-04-16T01:26:45.067Z,7.13
2024-04-16T01:29:11.527Z,7.10
2024-04-16T01:31:38.060Z,7.07
2024-04-16T01:34:04.707Z,6.99
2024-04-16T01:36:31.213Z,6.98
2024-04-16T01:38:57.737Z,7.05
2024-04-16T01:41:24.188Z,7.07
2024-04-16T01:43:50.696Z,7.04
2024-04-16T01:46:17.161Z,7.07
2024-04-16T01:48:43.654Z,7.10
2024-04-16T01:51:10.322Z,7.07
2024-04-16T01:53:37.042Z,7.03
2024-04-16T01:56:03.624Z,7.04
2024-04-16T01:58:30.245Z,6.98
2024-04-16T02:01:00.854Z,6.99
2024-04-16T02:03:27.740Z,6.93
2024-04-16T02:05:56.348Z,6.84
2024-04-16T02:08:22.803Z,6.76
2024-04-16T02:10:56.627Z,6.71
2024-04-16T02:13:23.214Z,6.60
2024-04-16T02:15:49.763Z,6.53
2024-04-16T02:18:16.355Z,6.45
2024-04-16T02:20:42.908Z,6.39
2024-04-16T02:23:09.401Z,6.35
2024-04-16T02:25:35.913Z,6.31
2024-04-16T02:28:02.970Z,6.28
2024-04-16T02:30:30.278Z,6.30
2024-04-16T02:32:56.804Z,6.29
2024-04-16T02:35:23.296Z,6.23
2024-04-16T02:37:50.065Z,6.16
2024-04-16T02:40:16.781Z,6.08
2024-04-16T02:42:43.250Z,6.05
2024-04-16T02:45:09.719Z,6.03
2024-04-16T02:47:36.199Z,5.96
2024-04-16T02:50:02.707Z,5.92
2024-04-16T02:52:29.201Z,5.93
2024-04-16T02:54:57.280Z,5.82
2024-04-16T02:57:24.129Z,5.73
2024-04-16T02:59:50.595Z,5.69
2024-04-16T03:02:17.107Z,5.63
2024-04-16T03:04:43.735Z,5.60
2024-04-16T03:07:10.218Z,5.64
2024-04-16T03:09:36.717Z,5.57
2024-04-16T03:12:03.273Z,5.54
2024-04-16T03:14:29.816Z,5.54
2024-04-16T03:16:56.479Z,5.48
2024-04-16T03:19:23.019Z,5.48
2024-04-16T03:21:49.490Z,5.43
2024-04-16T03:24:15.984Z,5.44
2024-04-16T03:26:42.486Z,5.43
2024-04-16T03:29:08.988Z,5.43
2024-04-16T03:31:35.589Z,5.40
2024-04-16T03:34:02.197Z,5.36
2024-04-16T03:36:28.680Z,5.33
2024-04-16T03:38:55.173Z,5.32
2024-04-16T03:41:23.836Z,5.30
2024-04-16T03:43:52.703Z,5.33
2024-04-16T03:46:20.859Z,5.27
2024-04-16T03:48:47.449Z,5.28
2024-04-16T03:51:14.022Z,5.30
2024-04-16T03:53:40.477Z,5.22
2024-04-16T03:56:07.242Z,5.14
2024-04-16T03:58:35.856Z,5.15
2024-04-16T04:01:04.759Z,5.11
2024-04-16T04:03:31.670Z,5.09
2024-04-16T04:05:58.345Z,5.07
2024-04-16T04:08:25.102Z,5.06
2024-04-16T04:10:51.955Z,5.02
2024-04-16T04:13:18.531Z,4.94
2024-04-16T04:15:45.053Z,5.00
2024-04-16T04:18:11.850Z,5.01
2024-04-16T04:20:41.292Z,5.02
2024-04-16T04:23:08.767Z,5.05
2024-04-16T04:25:35.493Z,5.09
2024-04-16T04:28:02.068Z,5.11
2024-04-16T04:30:29.022Z,5.12
2024-04-16T04:32:55.611Z,5.14
2024-04-16T04:35:22.115Z,5.16
2024-04-16T04:37:48.560Z,5.19
2024-04-16T04:40:15.154Z,5.20
2024-04-16T04:42:41.639Z,5.15
2024-04-16T04:45:08.313Z,5.18
2024-04-16T04:47:35.000Z,5.24
2024-04-16T04:50:01.512Z,5.33
2024-04-16T04:52:28.079Z,5.41
2024-04-16T04:54:54.593Z,5.47
2024-04-16T04:57:21.084Z,5.51
2024-04-16T04:59:47.526Z,5.53
2024-04-16T05:02:14.042Z,5.61
2024-04-16T05:04:40.586Z,5.65
2024-04-16T05:07:07.176Z,5.67
2024-04-16T05:09:33.655Z,5.69
2024-04-16T05:12:00.120Z,5.75
2024-04-16T05:14:26.628Z,5.76
2024-04-16T05:16:53.064Z,5.76
2024-04-16T05:19:19.544Z,5.80
2024-04-16T05:21:46.070Z,5.89
2024-04-16T05:24:13.828Z,5.98
2024-04-16T05:26:40.484Z,6.06
2024-04-16T05:29:07.017Z,6.20
2024-04-16T05:31:33.775Z,6.34
2024-04-16T05:34:00.286Z,6.48
2024-04-16T05:36:26.843Z,6.55
2024-04-16T05:38:53.311Z,6.60
2024-04-16T05:41:20.007Z,6.64
2024-04-16T05:43:46.726Z,6.70
2024-04-16T05:46:13.228Z,6.80
2024-04-16T05:48:39.714Z,6.88
2024-04-16T05:51:06.214Z,6.92
2024-04-16T05:53:32.707Z,7.05
2024-04-16T05:55:59.181Z,7.09
2024-04-16T05:58:25.835Z,7.06
2024-04-16T06:00:52.436Z,7.02
2024-04-16T06:03:19.028Z,6.95
2024-04-16T06:05:45.526Z,6.90
2024-04-16T06:08:12.033Z,6.89
2024-04-16T06:10:38.813Z,6.79
2024-04-16T06:13:05.418Z,6.87
2024-04-16T06:15:32.023Z,6.84
2024-04-16T06:17:58.650Z,6.82
2024-04-16T06:20:25.136Z,6.82
2024-04-16T06:22:54.287Z,6.84
2024-04-16T06:25:22.598Z,6.83
2024-04-16T06:27:50.622Z,6.84
2024-04-16T06:30:17.114Z,6.91
2024-04-16T06:32:43.698Z,6.94
2024-04-16T06:35:10.252Z,7.04
2024-04-16T06:37:36.824Z,7.09
2024-04-16T06:40:03.560Z,7.12
2024-04-16T06:42:31.141Z,7.17
2024-04-16T06:44:57.589Z,7.24
2024-04-16T06:47:24.026Z,7.25
2024-04-16T06:49:50.585Z,7.27
2024-04-16T06:52:17.095Z,7.29
2024-04-16T06:54:43.609Z,7.34
2024-04-16T06:57:10.066Z,7.34
2024-04-16T06:59:36.561Z,7.34
2024-04-16T07:02:03.140Z,7.45
2024-04-16T07:04:29.737Z,7.50
2024-04-16T07:06:58.618Z,7.60
2024-04-16T07:09:26.258Z,7.77
2024-04-16T07:11:53.254Z,7.85
2024-04-16T07:14:19.794Z,7.94
2024-04-16T07:16:46.405Z,8.12
2024-04-16T07:19:13.115Z,8.30
2024-04-16T07:21:40.736Z,8.48
2024-04-16T07:24:07.328Z,8.55
2024-04-16T07:26:33.875Z,8.49
2024-04-16T07:29:00.336Z,8.45
2024-04-16T07:31:35.166Z,8.37
2024-04-16T07:34:05.421Z,8.29
2024-04-16T07:36:34.184Z,8.15
2024-04-16T07:39:00.751Z,8.11
2024-04-16T07:41:27.631Z,8.13
2024-04-16T07:43:54.189Z,8.10
2024-04-16T07:46:20.723Z,8.11
2024-04-16T07:48:47.269Z,8.13
2024-04-16T07:51:13.733Z,8.12
2024-04-16T07:53:40.294Z,8.13
2024-04-16T07:56:08.263Z,8.16
2024-04-16T07:58:34.840Z,8.12
2024-04-16T08:01:01.425Z,8.05
2024-04-16T08:03:29.252Z,8.10
2024-04-16T08:05:56.295Z,8.14
2024-04-16T08:08:29.036Z,8.18
2024-04-16T08:11:14.688Z,8.23
2024-04-16T08:13:42.093Z,8.25
2024-04-16T08:16:09.491Z,8.30
2024-04-16T08:18:36.780Z,8.38
2024-04-16T08:21:03.431Z,8.49
2024-04-16T08:23:29.994Z,8.53
2024-04-16T08:26:08.788Z,8.58
2024-04-16T08:28:37.264Z,8.64
2024-04-16T08:31:04.406Z,8.73
2024-04-16T08:33:31.225Z,8.81
2024-04-16T08:35:58.045Z,8.87
2024-04-16T08:38:24.868Z,8.82
2024-04-16T08:40:51.527Z,8.88
2024-04-16T08:43:18.547Z,8.79
2024-04-16T08:45:45.948Z,8.69
2024-04-16T08:48:13.714Z,8.66
2024-04-16T08:50:41.675Z,8.63
2024-04-16T08:53:09.574Z,8.62
2024-04-16T08:55:36.311Z,8.60
2024-04-16T08:58:02.955Z,8.56
2024-04-16T09:00:29.494Z,8.56
2024-04-16T09:02:56.005Z,8.52
2024-04-16T09:05:22.659Z,8.40
2024-04-16T09:07:49.210Z,8.29
2024-04-16T09:10:24.306Z,8.12
2024-04-16T09:12:50.943Z,7.95
2024-04-16T09:15:19.299Z,7.88
2024-04-16T09:17:56.362Z,7.81
2024-04-16T09:20:27.890Z,7.78
2024-04-16T09:22:55.393Z,7.75
2024-04-16T09:25:23.547Z,7.68
2024-04-16T09:27:53.192Z,7.65
2024-04-16T09:30:20.154Z,7.65
2024-04-16T09:32:48.426Z,7.63
2024-04-16T09:35:20.421Z,7.63
2024-04-16T09:37:49.224Z,7.70
2024-04-16T09:40:17.943Z,7.68
2024-04-16T09:42:44.825Z,7.72
2024-04-16T09:45:11.832Z,7.73
2024-04-16T09:47:39.802Z,7.75
2024-04-16T09:50:16.342Z,7.75
2024-04-16T09:52:55.618Z,7.76
2024-04-16T09:55:23.130Z,7.78
2024-04-16T09:57:50.748Z,7.82
2024-04-16T10:00:18.450Z,7.86
2024-04-16T10:02:46.310Z,7.93
2024-04-16T10:05:14.665Z,7.97
2024-04-16T10:07:42.905Z,8.04
2024-04-16T10:10:10.356Z,8.09
2024-04-16T10:12:38.776Z,8.14
2024-04-16T10:15:07.654Z,8.27
2024-04-16T10:17:48.869Z,8.28
2024-04-16T10:20:18.678Z,8.26
2024-04-16T10:22:55.843Z,8.21
2024-04-16T10:25:32.417Z,8.23
2024-04-16T10:28:03.396Z,8.15
2024-04-16T10:30:31.845Z,8.17
2024-04-16T10:32:59.685Z,8.18
2024-04-16T10:35:27.811Z,8.21
2024-04-16T10:37:54.327Z,8.32
2024-04-16T10:40:31.873Z,8.36
2024-04-16T10:43:00.597Z,8.41
2024-04-16T10:45:29.852Z,8.45
2024-04-16T10:47:57.331Z,8.45
2024-04-16T10:50:23.951Z,8.49
2024-04-16T10:52:51.883Z,8.52
2024-04-16T10:55:18.502Z,8.55
2024-04-16T10:57:46.019Z,8.60
2024-04-16T11:00:14.961Z,8.63
2024-04-16T11:02:41.757Z,8.70
2024-04-16T11:05:08.405Z,8.84
2024-04-16T11:07:35.962Z,8.91
2024-04-16T11:10:02.564Z,9.04
2024-04-16T11:12:29.098Z,9.14
2024-04-16T11:14:55.995Z,9.27
2024-04-16T11:17:22.459Z,9.37
2024-04-16T11:19:49.189Z,9.46
2024-04-16T11:22:15.965Z,9.62
2024-04-16T11:24:43.038Z,9.77
2024-04-16T11:27:13.335Z,9.85
2024-04-16T11:29:47.489Z,9.97
2024-04-16T11:32:14.025Z,10.07
2024-04-16T11:34:43.609Z,10.10
2024-04-16T11:37:11.999Z,10.13
2024-04-16T11:39:42.685Z,10.17
2024-04-16T11:42:11.360Z,10.17
2024-04-16T11:44:41.591Z,10.24
2024-04-16T11:47:11.511Z,10.29
2024-04-16T11:49:41.498Z,10.34
2024-04-16T11:52:08.171Z,10.42
2024-04-16T11:54:36.440Z,10.46
2024-04-16T11:57:04.903Z,10.62
2024-04-16T11:59:32.208Z,10.73
2024-04-16T12:01:59.053Z,10.88
2024-04-16T12:04:25.597Z,10.96
2024-04-16T12:06:52.096Z,10.94
2024-04-16T12:09:18.670Z,10.88
2024-04-16T12:11:46.000Z,10.87
2024-04-16T12:14:12.643Z,10.85
2024-04-16T12:16:39.982Z,10.80
2024-04-16T12:19:06.578Z,10.82
2024-04-16T12:21:33.219Z,10.82
2024-04-16T12:23:59.885Z,10.83
2024-04-16T12:26:26.656Z,10.91
2024-04-16T12:28:56.925Z,10.96
2024-04-16T12:31:23.648Z,11.02
2024-04-16T12:33:50.216Z,11.07
2024-04-16T12:36:17.091Z,11.13
2024-04-16T12:38:45.141Z,11.24
2024-04-16T12:41:12.211Z,11.32
2024-04-16T12:43:39.015Z,11.33
2024-04-16T12:46:06.377Z,11.39
2024-04-16T12:48:33.062Z,11.38
2024-04-16T12:51:00.476Z,11.42
2024-04-16T12:53:26.958Z,11.53
2024-04-16T12:55:53.476Z,11.72
2024-04-16T12:58:20.016Z,11.87
2024-04-16T13:00:46.576Z,11.89
2024-04-16T13:03:13.384Z,11.83
2024-04-16T13:05:39.856Z,11.81
2024-04-16T13:08:07.424Z,11.71
2024-04-16T13:10:37.017Z,11.64
2024-04-16T13:13:03.570Z,11.61
2024-04-16T13:15:30.095Z,11.64
2024-04-16T13:17:57.060Z,11.71
2024-04-16T13:20:25.359Z,11.76
2024-04-16T13:22:52.108Z,11.84
2024-04-16T13:25:18.646Z,11.95
2024-04-16T13:27:45.128Z,12.03
2024-04-16T13:30:11.738Z,12.11
2024-04-16T13:32:38.274Z,12.20
2024-04-16T13:35:05.115Z,12.22
2024-04-16T13:37:31.596Z,12.18
2024-04-16T13:39:58.163Z,12.17
2024-04-16T13:42:24.785Z,12.17
2024-04-16T13:44:51.336Z,12.13
2024-04-16T13:47:20.549Z,12.13
2024-04-16T13:49:47.222Z,12.15
2024-04-16T13:52:13.807Z,12.10
2024-04-16T13:54:40.294Z,12.03
2024-04-16T13:57:06.726Z,12.01
2024-04-16T13:59:33.297Z,11.92
2024-04-16T14:01:59.924Z,11.89
2024-04-16T14:04:26.721Z,11.91
2024-04-16T14:06:53.191Z,11.98
2024-04-16T14:09:21.950Z,12.05
2024-04-16T14:11:49.932Z,12.17
2024-04-16T14:14:16.512Z,12.25
2024-04-16T14:16:43.402Z,12.24
2024-04-16T14:19:09.942Z,12.24
2024-04-16T14:21:36.480Z,12.15
2024-04-16T14:24:09.844Z,12.15
2024-04-16T14:26:36.342Z,12.13
2024-04-16T14:29:05.079Z,12.13
2024-04-16T14:31:31.701Z,12.10
2024-04-16T14:33:58.242Z,12.08
2024-04-16T14:36:26.218Z,12.10
2024-04-16T14:38:52.792Z,12.05
2024-04-16T14:41:19.584Z,12.07
2024-04-16T14:43:46.158Z,12.05
2024-04-16T14:46:12.760Z,12.04
2024-04-16T14:48:39.349Z,12.07
2024-04-16T14:51:05.967Z,12.04
2024-04-16T14:53:32.484Z,11.95
2024-04-16T14:55:58.991Z,12.01
2024-04-16T14:58:25.511Z,12.04
2024-04-16T15:00:55.802Z,12.07
2024-04-16T15:03:23.248Z,12.11
2024-04-16T15:05:50.434Z,12.12
2024-04-16T15:08:16.892Z,12.15
2024-04-16T15:10:47.207Z,12.16
2024-04-16T15:13:13.894Z,12.17
2024-04-16T15:15:40.410Z,12.13
2024-04-16T15:18:07.020Z,12.19
2024-04-16T15:20:33.546Z,12.23
2024-04-16T15:23:00.214Z,12.22
2024-04-16T15:25:26.790Z,12.24
2024-04-16T15:27:53.359Z,12.20
2024-04-16T15:30:20.133Z,12.14
2024-04-16T15:32:46.628Z,12.17
2024-04-16T15:35:14.005Z,12.14
2024-04-16T15:37:40.543Z,12.14
2024-04-16T15:40:13.777Z,12.09
2024-04-16T15:42:46.992Z,12.07
2024-04-16T15:45:13.477Z,12.02
2024-04-16T15:47:40.069Z,11.97
2024-04-16T15:50:06.597Z,11.96
2024-04-16T15:52:33.140Z,11.95
2024-04-16T15:54:59.628Z,11.95
2024-04-16T15:57:26.097Z,11.93
2024-04-16T15:59:52.567Z,11.75
2024-04-16T16:02:19.173Z,11.63
2024-04-16T16:04:46.101Z,11.36
2024-04-16T16:07:12.584Z,11.04
2024-04-16T16:09:39.087Z,10.69
2024-04-16T16:12:06.714Z,10.44
2024-04-16T16:14:33.174Z,10.27
2024-04-16T16:16:59.706Z,10.12
2024-04-16T16:19:26.211Z,9.90
2024-04-16T16:21:52.737Z,9.64
2024-04-16T16:24:19.302Z,9.42
2024-04-16T16:26:45.804Z,9.23
2024-04-16T16:29:12.277Z,9.06
2024-04-16T16:31:38.953Z,9.02
2024-04-16T16:34:10.234Z,9.04
2024-04-16T16:36:37.504Z,8.98
2024-04-16T16:39:07.040Z,9.01
2024-04-16T16:41:35.456Z,9.02
2024-04-16T16:44:02.007Z,9.06
2024-04-16T16:46:28.675Z,9.07
2024-04-16T16:48:55.684Z,9.12
2024-04-16T16:51:22.263Z,9.15
2024-04-16T16:53:48.801Z,9.17
2024-04-16T16:56:15.244Z,9.22
2024-04-16T16:58:41.748Z,9.29
2024-04-16T17:01:08.263Z,9.36
2024-04-16T17:03:34.774Z,9.40
2024-04-16T17:06:01.267Z,9.38
2024-04-16T17:08:27.738Z,9.35
2024-04-16T17:10:57.394Z,9.37
2024-04-16T17:13:24.081Z,9.31
2024-04-16T17:15:50.895Z,9.22
2024-04-16T17:18:17.483Z,9.21
2024-04-16T17:20:44.080Z,9.27
2024-04-16T17:23:10.540Z,9.32
2024-04-16T17:25:37.375Z,9.36
2024-04-16T17:28:03.920Z,9.36
2024-04-16T17:30:30.408Z,9.32
2024-04-16T17:32:56.982Z,9.32
2024-04-16T17:35:23.918Z,9.35
2024-04-16T17:37:50.546Z,9.39
2024-04-16T17:40:20.411Z,9.34
2024-04-16T17:42:47.065Z,9.26
2024-04-16T17:45:13.570Z,9.27
2024-04-16T17:47:40.568Z,9.28
2024-04-16T17:50:07.537Z,9.34
2024-04-16T17:52:34.081Z,9.38
2024-04-16T17:55:00.687Z,9.33
2024-04-16T17:57:27.251Z,9.32
2024-04-16T17:59:53.843Z,9.24
2024-04-16T18:02:20.619Z,9.21
2024-04-16T18:04:47.156Z,9.12
2024-04-16T18:07:13.817Z,9.05
2024-04-16T18:09:40.650Z,8.95
2024-04-16T18:12:07.823Z,8.96
2024-04-16T18:14:35.431Z,8.89
2024-04-16T18:17:01.890Z,8.80
2024-04-16T18:19:29.509Z,8.74
2024-04-16T18:21:56.035Z,8.73
2024-04-16T18:24:22.591Z,8.70
2024-04-16T18:26:49.399Z,8.74
2024-04-16T18:29:15.838Z,8.76
2024-04-16T18:31:42.346Z,8.76
2024-04-16T18:34:08.904Z,8.76
2024-04-16T18:36:35.357Z,8.76
2024-04-16T18:39:01.814Z,8.73
2024-04-16T18:41:28.374Z,8.78
2024-04-16T18:43:54.884Z,8.78
2024-04-16T18:46:21.425Z,8.79
2024-04-16T18:48:48.029Z,8.83
2024-04-16T18:51:14.528Z,8.86
2024-04-16T18:53:40.990Z,8.88
2024-04-16T18:56:14.186Z,8.98
2024-04-16T18:58:40.709Z,9.03
2024-04-16T19:01:07.268Z,9.00
2024-04-16T19:03:33.794Z,8.95
2024-04-16T19:06:00.285Z,8.90
2024-04-16T19:08:26.744Z,8.86
2024-04-16T19:10:53.267Z,8.84
2024-04-16T19:13:19.796Z,8.87
2024-04-16T19:16:02.968Z,8.84
2024-04-16T19:18:30.966Z,8.88
2024-04-16T19:20:57.520Z,8.93
2024-04-16T19:23:25.408Z,8.90
2024-04-16T19:25:52.874Z,8.96
2024-04-16T19:28:22.143Z,9.02
2024-04-16T19:30:50.371Z,9.03
2024-04-16T19:33:16.962Z,9.01
2024-04-16T19:35:43.481Z,9.02
2024-04-16T19:38:09.975Z,9.07
2024-04-16T19:40:36.499Z,9.05
2024-04-16T19:43:02.988Z,9.04
2024-04-16T19:45:29.575Z,9.08
2024-04-16T19:47:56.091Z,9.07
2024-04-16T19:50:22.643Z,9.04
2024-04-16T19:52:49.317Z,9.03
2024-04-16T19:55:16.120Z,8.99
2024-04-16T19:57:43.418Z,8.93
2024-04-16T20:00:10.615Z,8.90
2024-04-16T20:02:37.467Z,8.86
2024-04-16T20:05:04.244Z,8.81
2024-04-16T20:07:30.968Z,8.84
2024-04-16T20:09:57.844Z,8.81
2024-04-16T20:12:24.260Z,8.87
2024-04-16T20:14:50.925Z,8.85
2024-04-16T20:17:17.451Z,8.85
2024-04-16T20:19:44.232Z,8.87
2024-04-16T20:22:10.811Z,8.82
2024-04-16T20:24:37.339Z,8.76
2024-04-16T20:27:04.221Z,8.72
2024-04-16T20:29:32.419Z,8.70
2024-04-16T20:31:59.109Z,8.65
2024-04-16T20:34:28.133Z,8.61
2024-04-16T20:36:54.927Z,8.60
2024-04-16T20:39:22.227Z,8.55
2024-04-16T20:41:48.747Z,8.56
2024-04-16T20:44:15.288Z,8.57
2024-04-16T20:46:41.812Z,8.54
2024-04-16T20:49:08.337Z,8.53
2024-04-16T20:51:34.787Z,8.55
2024-04-16T20:54:01.254Z,8.52
2024-04-16T20:56:27.719Z,8.56
2024-04-16T20:58:54.338Z,8.55
2024-04-16T21:01:20.867Z,8.61
2024-04-16T21:03:47.490Z,8.64
2024-04-16T21:06:14.078Z,8.66
2024-04-16T21:08:40.536Z,8.66
2024-04-16T21:11:07.169Z,8.62
2024-04-16T21:13:34.090Z,8.64
2024-04-16T21:16:00.687Z,8.70
2024-04-16T21:18:27.599Z,8.68
2024-04-16T21:20:54.197Z,8.63
2024-04-16T21:23:21.062Z,8.59
2024-04-16T21:25:51.150Z,8.60
2024-04-16T21:28:17.824Z,8.54
2024-04-16T21:30:44.313Z,8.56
2024-04-16T21:33:10.938Z,8.51
2024-04-16T21:35:38.644Z,8.52
2024-04-16T21:38:05.550Z,8.54
2024-04-16T21:40:32.470Z,8.50
2024-04-16T21:42:58.954Z,8.46
2024-04-16T21:45:25.478Z,8.49
2024-04-16T21:47:52.100Z,8.48
2024-04-16T21:50:20.535Z,8.51
2024-04-16T21:52:47.046Z,8.53
2024-04-16T21:55:13.658Z,8.56
2024-04-16T21:57:40.215Z,8.54
2024-04-16T22:00:08.972Z,8.58
2024-04-16T22:02:35.458Z,8.57
2024-04-16T22:05:02.056Z,8.59
2024-04-16T22:07:28.555Z,8.62
2024-04-16T22:09:55.112Z,8.62
2024-04-16T22:12:21.653Z,8.59
2024-04-16T22:14:48.161Z,8.54
2024-04-16T22:17:14.691Z,8.55
2024-04-16T22:19:41.189Z,8.51
2024-04-16T22:22:07.665Z,8.47
2024-04-16T22:24:34.116Z,8.42
2024-04-16T22:27:00.587Z,8.35
2024-04-16T22:29:27.141Z,8.31
2024-04-16T22:31:53.989Z,8.26
2024-04-16T22:34:20.416Z,8.24
2024-04-16T22:36:46.903Z,8.19
2024-04-16T22:39:13.377Z,8.14
2024-04-16T22:41:39.871Z,8.11
2024-04-16T22:44:06.354Z,8.08
2024-04-16T22:46:33.687Z,8.11
2024-04-16T22:49:00.280Z,8.09
2024-04-16T22:51:26.859Z,8.08
2024-04-16T22:53:53.705Z,8.04
2024-04-16T22:56:23.173Z,8.05
2024-04-16T22:58:51.170Z,8.01
2024-04-16T23:01:17.724Z,7.99
2024-04-16T23:03:44.352Z,7.94
2024-04-16T23:06:10.967Z,7.92
2024-04-16T23:08:37.471Z,7.86
2024-04-16T23:11:04.650Z,7.90
2024-04-16T23:13:31.289Z,7.85
2024-04-16T23:15:57.832Z,7.81
2024-04-16T23:18:24.382Z,7.77
2024-04-16T23:20:50.945Z,7.74
2024-04-16T23:23:17.448Z,7.72
2024-04-16T23:25:44.003Z,7.74
2024-04-16T23:28:10.519Z,7.70
2024-04-16T23:30:37.025Z,7.72
2024-04-16T23:33:03.636Z,7.75
2024-04-16T23:35:30.208Z,7.70
2024-04-16T23:37:56.689Z,7.72
2024-04-16T23:40:23.170Z,7.75
2024-04-16T23:42:49.634Z,7.71
2024-04-16T23:45:16.152Z,7.69
2024-04-16T23:47:42.768Z,7.63
2024-04-16T23:50:09.264Z,7.61
2024-04-16T23:52:35.840Z,7.62
2024-04-16T23:55:02.336Z,7.63
2024-04-16T23:57:28.782Z,7.65
2024-04-16T23:59:55.211Z,7.60
